createdAt,value
2022-10-11T03:45:02.247Z,17.3
2022-10-11T03:50:07.647Z,17.9
2022-10-11T03:55:12.769Z,18
2022-10-11T04:00:17.619Z,18.1
2022-10-11T04:05:23.026Z,18.1
2022-10-11T04:10:28.425Z,18.2
2022-10-11T04:15:33.902Z,18.2
2022-10-11T04:20:39.290Z,18.2
2022-10-11T04:25:44.694Z,18.2
2022-10-11T04:30:50.118Z,18.2
2022-10-11T04:35:55.508Z,18.2
2022-10-11T04:41:00.900Z,18.1
2022-10-11T04:46:06.196Z,18.1
2022-10-11T04:51:12.225Z,18.1
2022-10-11T04:56:17.337Z,18.1
2022-10-11T05:01:22.759Z,18.1
2022-10-11T05:06:28.168Z,18.1
2022-10-11T05:11:33.554Z,18.1
2022-10-11T05:16:38.991Z,18.1
2022-10-11T05:21:44.372Z,18.1
2022-10-11T05:26:49.486Z,18.1
2022-10-11T05:31:54.939Z,18.1
2022-10-11T05:37:00.353Z,18.1
2022-10-11T05:42:09.027Z,18
2022-10-11T05:47:14.990Z,18
2022-10-11T05:52:20.370Z,18
2022-10-11T05:57:25.481Z,18
2022-10-11T06:02:30.646Z,18
2022-10-11T06:07:36.021Z,18
2022-10-11T06:12:41.435Z,18
2022-10-11T06:17:46.874Z,18
2022-10-11T06:22:52.258Z,18
2022-10-11T06:27:57.670Z,17.9
2022-10-11T06:33:04.912Z,18
2022-10-11T06:38:10.469Z,18
2022-10-11T06:43:15.974Z,18
2022-10-11T06:48:21.393Z,18
2022-10-11T06:53:26.810Z,18
2022-10-11T06:58:32.209Z,17.9
2022-10-11T07:03:37.640Z,17.9
2022-10-11T07:08:43.032Z,17.9
2022-10-11T07:13:48.483Z,17.9
2022-10-11T07:18:58.923Z,18
2022-10-11T07:24:06.122Z,18
2022-10-11T07:29:11.523Z,18
2022-10-11T07:34:16.983Z,17.9
2022-10-11T07:39:22.392Z,18
2022-10-11T07:44:27.257Z,18
2022-10-11T07:49:32.688Z,18
2022-10-11T07:54:38.128Z,18
2022-10-11T07:59:46.731Z,18
2022-10-11T08:04:55.462Z,18
2022-10-11T08:10:00.861Z,18
2022-10-11T08:15:05.990Z,18
2022-10-11T08:20:11.439Z,18.1
2022-10-11T08:25:16.878Z,18
2022-10-11T08:30:22.036Z,18.1
2022-10-11T08:35:27.473Z,18.2
2022-10-11T08:40:35.231Z,18.2
2022-10-11T08:45:40.802Z,18.3
2022-10-11T08:50:45.933Z,18.2
2022-10-11T08:55:51.413Z,18.3
2022-10-11T09:00:56.824Z,18.2
2022-10-11T09:06:02.556Z,18.3
2022-10-11T09:11:08.780Z,18.3
2022-10-11T09:16:14.205Z,18.3
2022-10-11T09:21:19.615Z,18.3
2022-10-11T09:26:25.042Z,18.3
2022-10-11T09:31:29.890Z,18.4
2022-10-11T09:36:35.649Z,18.4
2022-10-11T09:41:41.038Z,18.4
2022-10-11T09:46:46.181Z,18.4
2022-10-11T09:51:51.326Z,18.5
2022-10-11T09:56:56.744Z,18.7
2022-10-11T10:02:02.158Z,18.8
2022-10-11T10:07:07.702Z,18.8
2022-10-11T10:12:13.074Z,18.9
2022-10-11T10:17:18.196Z,18.9
2022-10-11T10:22:23.335Z,19
2022-10-11T10:27:28.725Z,19
2022-10-11T10:32:34.117Z,19
2022-10-11T10:37:39.287Z,19
2022-10-11T10:42:44.672Z,19
2022-10-11T10:47:49.791Z,19
2022-10-11T10:52:55.232Z,19.1
2022-10-11T10:58:00.698Z,19.1
2022-10-11T11:03:06.093Z,19.1
2022-10-11T11:08:11.254Z,19.2
2022-10-11T11:13:16.630Z,19.2
2022-10-11T11:18:21.761Z,19.2
2022-10-11T11:23:27.211Z,19.2
2022-10-11T11:28:32.650Z,19.2
2022-10-11T11:33:37.850Z,19.2
2022-10-11T11:38:43.366Z,19
2022-10-11T11:43:48.755Z,19
2022-10-11T11:48:53.882Z,19.1
2022-10-11T11:53:58.752Z,19
2022-10-11T11:59:04.132Z,18.9
2022-10-11T12:04:09.254Z,19
2022-10-11T12:09:14.405Z,19.1
2022-10-11T12:14:19.794Z,19.2
2022-10-11T12:19:24.921Z,19.2
2022-10-11T12:24:30.330Z,19.3
2022-10-11T12:29:35.734Z,19.3
2022-10-11T12:39:45.737Z,19.2
2022-10-11T12:44:51.130Z,19.2
2022-10-11T12:49:56.526Z,19.1
2022-10-11T12:55:01.665Z,19.2
2022-10-11T13:00:07.093Z,19.1
2022-10-11T13:05:12.531Z,19
2022-10-11T13:10:18.011Z,19
2022-10-11T13:15:23.409Z,18.9
2022-10-11T13:20:28.522Z,18.9
2022-10-11T13:25:33.687Z,18.9
2022-10-11T13:30:39.196Z,18.9
2022-10-11T13:35:44.597Z,18.9
2022-10-11T13:40:51.107Z,18.9
2022-10-11T13:45:56.658Z,18.9
2022-10-11T13:51:02.063Z,19
2022-10-11T13:56:07.851Z,18.9
2022-10-11T14:01:14.013Z,19
2022-10-11T14:06:19.209Z,19
2022-10-11T14:11:24.064Z,19
2022-10-11T14:16:29.467Z,19
2022-10-11T14:21:34.862Z,19
2022-10-11T14:26:40.036Z,19
2022-10-11T14:31:45.437Z,19
2022-10-11T14:36:50.563Z,19
2022-10-11T14:41:55.431Z,18.9
2022-10-11T14:47:00.833Z,18.9
2022-10-11T14:52:06.257Z,18.9
2022-10-11T14:57:11.689Z,18.9
2022-10-11T15:02:17.130Z,18.9
2022-10-11T15:07:22.559Z,18.9
2022-10-11T15:12:27.975Z,18.9
2022-10-11T15:17:33.368Z,18.8
2022-10-11T15:22:38.539Z,18.8
2022-10-11T15:27:44.016Z,18.8
2022-10-11T15:32:49.406Z,18.9
2022-10-11T15:37:54.832Z,18.9
2022-10-11T15:43:00.233Z,18.8
2022-10-11T15:48:05.631Z,18.8
2022-10-11T15:53:11.022Z,18.8
2022-10-11T15:58:16.177Z,18.8
2022-10-11T16:03:21.556Z,18.8
2022-10-11T16:08:26.972Z,18.8
2022-10-11T16:13:32.115Z,18.8
2022-10-11T16:18:37.522Z,18.8
2022-10-11T16:23:42.926Z,18.7
2022-10-11T16:28:47.892Z,18.7
2022-10-11T16:33:53.529Z,18.7
2022-10-11T16:38:58.439Z,18.7
2022-10-11T16:44:03.873Z,18.7
2022-10-11T16:49:09.282Z,18.7
2022-10-11T16:54:19.377Z,18.7
2022-10-11T16:59:25.660Z,18.6
2022-10-11T17:04:31.049Z,18.7
2022-10-11T17:09:39.146Z,18.6
2022-10-11T17:14:48.828Z,18.6
2022-10-11T17:19:54.315Z,18.5
2022-10-11T17:24:59.819Z,18.6
2022-10-11T17:30:05.129Z,18.6
2022-10-11T17:35:10.508Z,18.5
2022-10-11T17:40:15.954Z,18.5
2022-10-11T17:45:21.374Z,18.5
2022-10-11T17:50:26.845Z,18.5
2022-10-11T17:55:32.248Z,18.5
2022-10-11T18:00:37.422Z,18.4
2022-10-11T18:05:42.858Z,18.5
2022-10-11T18:10:48.004Z,18.5
2022-10-11T18:15:53.728Z,18.4
2022-10-11T18:20:59.580Z,18.4
2022-10-11T18:26:05.087Z,18.5
2022-10-11T18:31:13.109Z,18.4
2022-10-11T18:36:19.797Z,18.4
2022-10-11T18:41:25.078Z,18.4
2022-10-11T18:46:30.220Z,18.4
2022-10-11T18:51:35.635Z,18.4
2022-10-11T18:56:41.030Z,18.4
2022-10-11T19:01:46.625Z,18.4
2022-10-11T19:06:52.157Z,18.4
2022-10-11T19:11:57.314Z,18.4
2022-10-11T19:17:02.447Z,18.3
2022-10-11T19:22:07.841Z,18.3
2022-10-11T19:27:12.956Z,18.3
2022-10-11T19:32:18.374Z,18.3
2022-10-11T19:37:23.755Z,18.3
2022-10-11T19:42:29.394Z,18.3
2022-10-11T19:47:35.549Z,18.3
2022-10-11T19:52:44.768Z,18.3
2022-10-11T19:57:49.831Z,18.3
2022-10-11T20:02:54.975Z,18.2
2022-10-11T20:08:00.367Z,18.2
2022-10-11T20:13:05.522Z,18.2
2022-10-11T20:18:10.657Z,18.2
2022-10-11T20:23:18.094Z,18.2
2022-10-11T20:28:26.447Z,18.2
2022-10-11T20:33:31.685Z,18.2
2022-10-11T20:38:37.112Z,18.1
2022-10-11T20:43:42.519Z,18.1
2022-10-11T20:48:47.969Z,18.1
2022-10-11T20:53:53.364Z,18.1
2022-10-11T20:58:58.897Z,18.1
2022-10-11T21:04:03.776Z,18
2022-10-11T21:09:10.240Z,18
2022-10-11T21:14:21.141Z,18
2022-10-11T21:19:26.567Z,18
2022-10-11T21:24:31.948Z,18
2022-10-11T21:29:37.367Z,18
2022-10-11T21:34:42.524Z,17.9
2022-10-11T21:39:47.931Z,17.9
2022-10-11T21:44:53.348Z,17.9
2022-10-11T21:49:59.376Z,17.9
2022-10-11T21:55:04.766Z,17.9
2022-10-11T22:00:09.911Z,17.9
2022-10-11T22:05:15.075Z,17.9
2022-10-11T22:10:20.488Z,17.9
2022-10-11T22:15:25.880Z,17.9
2022-10-11T22:20:31.059Z,17.9
2022-10-11T22:25:36.463Z,17.8
2022-10-11T22:30:41.604Z,17.8
2022-10-11T22:35:47.035Z,17.8
2022-10-11T22:40:52.440Z,17.8
2022-10-11T22:45:57.566Z,17.8
2022-10-11T22:51:02.453Z,17.8
2022-10-11T22:56:07.830Z,17.8
2022-10-11T23:01:12.981Z,17.8
2022-10-11T23:06:18.149Z,17.7
2022-10-11T23:11:23.567Z,17.7
2022-10-11T23:16:28.982Z,17.7
2022-10-11T23:21:34.144Z,17.7
2022-10-11T23:26:39.548Z,17.6
2022-10-11T23:31:44.695Z,17.6
2022-10-11T23:36:50.136Z,17.6
2022-10-11T23:41:55.550Z,17.6
2022-10-11T23:47:00.691Z,17.6
2022-10-11T23:52:05.850Z,17.6
2022-10-11T23:57:11.261Z,17.6
